createdAt,value
2023-05-11T00:00:11.078Z,31.75
2023-05-11T00:01:11.042Z,31.65
2023-05-11T00:02:11.097Z,31.85
2023-05-11T00:03:11.169Z,31.94
2023-05-11T00:04:11.124Z,31.85
2023-05-11T00:05:11.056Z,31.85
2023-05-11T00:06:11.076Z,31.85
2023-05-11T00:07:11.077Z,31.94
2023-05-11T00:08:11.058Z,31.75
2023-05-11T00:09:11.061Z,31.85
2023-05-11T00:10:11.074Z,31.94
2023-05-11T00:11:11.062Z,31.85
2023-05-11T00:12:11.070Z,32.81
2023-05-11T00:13:11.074Z,32.33
2023-05-11T00:14:11.069Z,31.75
2023-05-11T00:15:11.076Z,32.23
2023-05-11T00:16:11.197Z,31.94
2023-05-11T00:17:11.087Z,31.94
2023-05-11T00:18:11.082Z,32.33
2023-05-11T00:19:11.080Z,31.85
2023-05-11T00:20:11.100Z,31.65
2023-05-11T00:21:11.088Z,31.85
2023-05-11T00:22:11.096Z,31.75
2023-05-11T00:23:11.107Z,31.56
2023-05-11T00:24:11.105Z,31.75
2023-05-11T00:25:11.104Z,31.85
2023-05-11T00:26:11.130Z,31.65
2023-05-11T00:27:11.105Z,31.65
2023-05-11T00:28:11.126Z,31.65
2023-05-11T00:29:11.110Z,31.56
2023-05-11T00:30:11.121Z,31.65
2023-05-11T00:31:11.172Z,31.65
2023-05-11T00:32:11.136Z,31.46
2023-05-11T00:33:11.114Z,31.37
2023-05-11T00:34:11.123Z,31.85
2023-05-11T00:35:11.140Z,31.65
2023-05-11T00:36:11.116Z,31.65
2023-05-11T00:37:11.119Z,31.65
2023-05-11T00:38:11.137Z,31.65
2023-05-11T00:39:11.131Z,31.56
2023-05-11T00:40:11.124Z,31.56
2023-05-11T00:41:11.140Z,31.65
2023-05-11T00:42:11.134Z,31.94
2023-05-11T00:43:11.141Z,31.65
2023-05-11T00:44:11.145Z,31.46
2023-05-11T00:45:11.141Z,31.65
2023-05-11T00:46:11.139Z,31.75
2023-05-11T00:47:11.208Z,31.65
2023-05-11T00:48:11.174Z,31.65
2023-05-11T00:49:11.148Z,31.27
2023-05-11T00:50:11.326Z,31.56
2023-05-11T00:51:11.147Z,31.65
2023-05-11T00:52:11.165Z,31.65
2023-05-11T00:53:11.151Z,31.85
2023-05-11T00:54:11.156Z,31.65
2023-05-11T00:55:11.161Z,31.75
2023-05-11T00:56:11.166Z,31.65
2023-05-11T00:57:11.170Z,31.75
2023-05-11T00:58:11.162Z,31.65
2023-05-11T00:59:11.166Z,31.75
2023-05-11T01:00:11.178Z,31.75
2023-05-11T01:01:11.224Z,31.65
2023-05-11T01:02:11.247Z,31.65
2023-05-11T01:03:11.259Z,32.62
2023-05-11T01:04:11.215Z,31.85
2023-05-11T01:05:11.217Z,31.65
2023-05-11T01:06:11.194Z,31.75
2023-05-11T01:07:11.204Z,32.33
2023-05-11T01:08:11.197Z,32.23
2023-05-11T01:09:11.191Z,31.85
2023-05-11T01:10:11.197Z,31.75
2023-05-11T01:11:11.333Z,32.23
2023-05-11T01:12:11.204Z,31.94
2023-05-11T01:13:11.201Z,31.75
2023-05-11T01:14:11.222Z,32.23
2023-05-11T01:15:11.203Z,31.94
2023-05-11T01:16:11.235Z,32.23
2023-05-11T01:17:11.215Z,32.62
2023-05-11T01:18:11.315Z,32.52
2023-05-11T01:19:11.289Z,32.23
2023-05-11T01:20:11.242Z,32.23
2023-05-11T01:21:11.236Z,32.33
2023-05-11T01:22:11.236Z,32.33
2023-05-11T01:23:11.231Z,32.52
2023-05-11T01:24:11.232Z,32.81
2023-05-11T01:25:11.231Z,32.81
2023-05-11T01:26:11.240Z,32.91
2023-05-11T01:27:11.262Z,32.33
2023-05-11T01:28:11.235Z,32.14
2023-05-11T01:29:11.267Z,33.00
2023-05-11T01:30:11.247Z,32.14
2023-05-11T01:31:11.261Z,32.71
2023-05-11T01:32:11.320Z,32.43
2023-05-11T01:33:11.281Z,32.23
2023-05-11T01:34:11.267Z,32.71
2023-05-11T01:35:11.283Z,33.00
2023-05-11T01:36:11.296Z,33.20
2023-05-11T01:37:11.278Z,33.10
2023-05-11T01:38:11.269Z,32.71
2023-05-11T01:39:11.275Z,32.71
2023-05-11T01:40:11.272Z,32.81
2023-05-11T01:41:11.270Z,32.71
2023-05-11T01:42:11.275Z,33.00
2023-05-11T01:43:11.281Z,32.52
2023-05-11T01:44:11.272Z,33.00
2023-05-11T01:45:11.276Z,33.20
2023-05-11T01:46:11.337Z,32.81
2023-05-11T01:47:11.277Z,33.10
2023-05-11T01:48:11.279Z,32.71
2023-05-11T01:49:11.286Z,32.81
2023-05-11T01:50:11.287Z,32.33
2023-05-11T01:51:11.292Z,33.20
2023-05-11T01:52:11.332Z,33.10
2023-05-11T01:53:11.296Z,32.91
2023-05-11T01:54:11.287Z,33.00
2023-05-11T01:55:11.315Z,32.33
2023-05-11T01:56:11.298Z,32.62
2023-05-11T01:57:11.298Z,32.71
2023-05-11T01:58:11.300Z,32.71
2023-05-11T01:59:11.319Z,32.43
2023-05-11T02:00:11.314Z,33.00
2023-05-11T02:01:11.345Z,32.91
2023-05-11T02:02:11.319Z,32.62
2023-05-11T02:03:11.445Z,32.33
2023-05-11T02:04:11.312Z,32.81
2023-05-11T02:05:11.566Z,32.23
2023-05-11T02:06:11.318Z,32.52
2023-05-11T02:07:11.316Z,32.62
2023-05-11T02:08:11.347Z,32.33
2023-05-11T02:09:11.327Z,32.33
2023-05-11T02:10:11.322Z,32.33
2023-05-11T02:11:11.331Z,32.71
2023-05-11T02:12:11.337Z,32.71
2023-05-11T02:13:11.344Z,32.71
2023-05-11T02:14:11.338Z,32.52
2023-05-11T02:15:11.353Z,32.14
2023-05-11T02:16:11.405Z,32.14
2023-05-11T02:17:11.343Z,32.33
2023-05-11T02:18:11.355Z,32.71
2023-05-11T02:19:11.403Z,32.04
2023-05-11T02:20:11.344Z,32.43
2023-05-11T02:21:11.347Z,32.52
2023-05-11T02:22:11.353Z,31.85
2023-05-11T02:23:11.358Z,32.33
2023-05-11T02:24:11.390Z,32.23
2023-05-11T02:25:11.360Z,31.85
2023-05-11T02:26:11.374Z,31.85
2023-05-11T02:27:11.369Z,31.65
2023-05-11T02:28:11.363Z,31.94
2023-05-11T02:29:11.365Z,31.85
2023-05-11T02:30:11.698Z,31.94
2023-05-11T02:31:11.388Z,31.65
2023-05-11T02:32:11.384Z,31.37
2023-05-11T02:33:11.377Z,31.65
2023-05-11T02:34:11.382Z,31.65
2023-05-11T02:35:11.402Z,31.65
2023-05-11T02:36:11.387Z,31.46
2023-05-11T02:37:11.390Z,31.65
2023-05-11T02:38:11.392Z,31.56
2023-05-11T02:39:11.392Z,31.75
2023-05-11T02:40:11.416Z,31.56
2023-05-11T02:41:11.400Z,31.85
2023-05-11T02:42:11.396Z,31.46
2023-05-11T02:43:11.407Z,31.65
2023-05-11T02:44:11.397Z,31.65
2023-05-11T02:45:11.564Z,31.65
2023-05-11T02:46:11.415Z,31.65
2023-05-11T02:47:11.407Z,31.56
2023-05-11T02:48:11.443Z,31.56
2023-05-11T02:49:11.419Z,31.65
2023-05-11T02:50:11.412Z,31.65
2023-05-11T02:51:11.413Z,32.04
2023-05-11T02:52:11.425Z,32.04
2023-05-11T02:53:11.418Z,32.14
2023-05-11T02:54:11.418Z,31.85
2023-05-11T02:55:11.422Z,31.75
2023-05-11T02:56:11.451Z,31.46
2023-05-11T02:57:11.423Z,31.65
2023-05-11T02:58:11.542Z,31.65
2023-05-11T02:59:11.441Z,32.04
2023-05-11T03:00:11.436Z,32.33
2023-05-11T03:01:11.493Z,31.85
2023-05-11T03:02:11.528Z,31.56
2023-05-11T03:03:11.580Z,32.23
2023-05-11T03:04:11.446Z,31.94
2023-05-11T03:05:11.598Z,31.75
2023-05-11T03:06:11.447Z,31.94
2023-05-11T03:07:11.449Z,31.85
2023-05-11T03:08:11.455Z,32.33
2023-05-11T03:09:11.458Z,32.71
2023-05-11T03:10:11.461Z,31.85
2023-05-11T03:11:11.457Z,32.43
2023-05-11T03:12:11.497Z,31.85
2023-05-11T03:13:11.462Z,32.23
2023-05-11T03:14:11.475Z,31.65
2023-05-11T03:15:11.470Z,33.00
2023-05-11T03:16:11.499Z,32.71
2023-05-11T03:17:11.477Z,31.85
2023-05-11T03:18:11.475Z,31.75
2023-05-11T03:19:11.470Z,31.56
2023-05-11T03:20:11.482Z,32.33
2023-05-11T03:21:11.481Z,32.91
2023-05-11T03:22:11.487Z,31.85
2023-05-11T03:23:11.484Z,31.56
2023-05-11T03:24:11.494Z,32.71
2023-05-11T03:25:11.492Z,31.94
2023-05-11T03:26:11.493Z,31.85
2023-05-11T03:27:11.497Z,33.00
2023-05-11T03:28:11.514Z,31.75
2023-05-11T03:29:11.503Z,32.33
2023-05-11T03:30:11.507Z,32.04
2023-05-11T03:31:11.507Z,31.75
2023-05-11T03:32:11.549Z,32.14
2023-05-11T03:33:11.577Z,31.65
2023-05-11T03:34:11.509Z,32.04
2023-05-11T03:35:11.512Z,31.75
2023-05-11T03:36:11.517Z,32.43
2023-05-11T03:37:11.512Z,32.04
2023-05-11T03:38:11.517Z,32.71
2023-05-11T03:39:11.527Z,32.14
2023-05-11T03:40:11.533Z,31.85
2023-05-11T03:41:11.529Z,31.75
2023-05-11T03:42:11.525Z,32.52
2023-05-11T03:43:11.539Z,32.04
2023-05-11T03:44:11.561Z,31.94
2023-05-11T03:45:11.527Z,32.33
2023-05-11T03:46:11.598Z,31.85
2023-05-11T03:47:11.541Z,31.85
2023-05-11T03:48:11.541Z,32.14
2023-05-11T03:49:13.745Z,32.43
2023-05-11T03:50:11.547Z,32.43
2023-05-11T03:51:11.548Z,32.62
2023-05-11T03:52:11.552Z,32.62
2023-05-11T03:53:11.598Z,33.00
2023-05-11T03:54:11.564Z,31.85
2023-05-11T03:55:11.556Z,32.81
2023-05-11T03:56:11.553Z,32.14
2023-05-11T03:57:11.550Z,32.52
2023-05-11T03:58:11.554Z,32.14
2023-05-11T03:59:11.561Z,32.71
2023-05-11T04:00:11.641Z,32.62
2023-05-11T04:01:11.564Z,32.62
2023-05-11T04:02:11.599Z,32.43
2023-05-11T04:03:11.706Z,32.62
2023-05-11T04:04:11.637Z,31.85
2023-05-11T04:05:11.616Z,32.71
2023-05-11T04:06:11.583Z,32.81
2023-05-11T04:07:11.583Z,31.94
2023-05-11T04:08:11.587Z,32.33
2023-05-11T04:09:11.576Z,32.33
2023-05-11T04:10:11.583Z,32.62
2023-05-11T04:11:11.583Z,32.71
2023-05-11T04:12:11.588Z,32.52
2023-05-11T04:13:11.593Z,32.23
2023-05-11T04:14:11.610Z,32.43
2023-05-11T04:15:11.594Z,32.23
2023-05-11T04:16:11.698Z,32.04
2023-05-11T04:17:11.595Z,32.71
2023-05-11T04:18:11.613Z,32.71
2023-05-11T04:19:11.595Z,33.20
2023-05-11T04:20:11.611Z,32.23
2023-05-11T04:21:11.607Z,32.71
2023-05-11T04:22:11.603Z,32.91
2023-05-11T04:23:11.629Z,33.20
2023-05-11T04:24:11.621Z,32.81
2023-05-11T04:25:11.774Z,33.29
2023-05-11T04:26:11.612Z,32.81
2023-05-11T04:27:11.635Z,32.14
2023-05-11T04:28:11.670Z,32.33
2023-05-11T04:29:11.651Z,32.62
2023-05-11T04:30:11.618Z,32.71
2023-05-11T04:31:11.681Z,32.33
2023-05-11T04:32:11.669Z,32.52
2023-05-11T04:33:11.636Z,32.43
2023-05-11T04:34:11.636Z,32.71
2023-05-11T04:35:11.635Z,33.00
2023-05-11T04:36:11.646Z,32.91
2023-05-11T04:37:11.634Z,32.71
2023-05-11T04:38:11.665Z,32.71
2023-05-11T04:39:11.649Z,32.91
2023-05-11T04:40:11.654Z,32.81
2023-05-11T04:41:11.651Z,32.71
2023-05-11T04:42:11.660Z,32.71
2023-05-11T04:43:11.650Z,33.48
2023-05-11T04:44:11.682Z,33.58
2023-05-11T04:45:11.671Z,33.58
2023-05-11T04:46:11.715Z,33.29
2023-05-11T04:47:11.659Z,33.20
2023-05-11T04:48:11.744Z,33.29
2023-05-11T04:49:11.668Z,33.00
2023-05-11T04:50:11.665Z,33.10
2023-05-11T04:51:11.677Z,33.48
2023-05-11T04:52:11.680Z,33.78
2023-05-11T04:53:11.686Z,33.68
2023-05-11T04:54:11.701Z,34.06
2023-05-11T04:55:11.674Z,33.87
2023-05-11T04:56:11.681Z,33.78
2023-05-11T04:57:11.689Z,34.74
2023-05-11T04:58:11.694Z,33.97
2023-05-11T04:59:11.710Z,34.55
2023-05-11T05:00:11.706Z,34.55
2023-05-11T05:01:11.759Z,34.45
2023-05-11T05:02:11.694Z,34.26
2023-05-11T05:03:11.697Z,35.03
2023-05-11T05:04:12.001Z,34.84
2023-05-11T05:05:11.705Z,34.55
2023-05-11T05:06:11.699Z,34.84
2023-05-11T05:07:11.709Z,35.03
2023-05-11T05:08:11.703Z,34.64
2023-05-11T05:09:11.707Z,35.13
2023-05-11T05:10:12.025Z,35.61
2023-05-11T05:11:11.719Z,35.52
2023-05-11T05:12:11.714Z,34.74
2023-05-11T05:13:11.734Z,34.36
2023-05-11T05:14:11.718Z,34.74
2023-05-11T05:15:11.726Z,35.03
2023-05-11T05:16:11.757Z,34.84
2023-05-11T05:17:11.822Z,34.84
2023-05-11T05:18:11.768Z,35.71
2023-05-11T05:19:11.735Z,35.13
2023-05-11T05:20:11.767Z,34.64
2023-05-11T05:21:11.735Z,34.64
2023-05-11T05:22:11.733Z,34.64
2023-05-11T05:23:11.752Z,34.94
2023-05-11T05:24:11.744Z,35.22
2023-05-11T05:25:11.809Z,35.13
2023-05-11T05:26:11.787Z,35.22
2023-05-11T05:27:11.766Z,35.52
2023-05-11T05:28:11.758Z,35.52
2023-05-11T05:29:11.798Z,35.61
2023-05-11T05:30:11.761Z,35.52
2023-05-11T05:31:11.835Z,35.52
2023-05-11T05:32:11.772Z,34.84
2023-05-11T05:33:11.855Z,35.71
2023-05-11T05:34:13.038Z,35.80
2023-05-11T05:35:11.777Z,35.42
2023-05-11T05:36:11.798Z,35.80
2023-05-11T05:37:11.771Z,35.52
2023-05-11T05:38:11.776Z,34.74
2023-05-11T05:39:11.805Z,34.94
2023-05-11T05:40:11.817Z,35.32
2023-05-11T05:41:11.786Z,35.52
2023-05-11T05:42:11.780Z,35.80
2023-05-11T05:43:11.793Z,35.61
2023-05-11T05:44:11.812Z,35.52
2023-05-11T05:45:13.966Z,35.61
2023-05-11T05:46:11.815Z,35.32
2023-05-11T05:47:11.795Z,35.03
2023-05-11T05:48:11.808Z,34.64
2023-05-11T05:49:11.806Z,34.84
2023-05-11T05:50:11.950Z,34.94
2023-05-11T05:51:11.809Z,34.84
2023-05-11T05:52:11.847Z,34.74
2023-05-11T05:53:11.807Z,34.64
2023-05-11T05:54:11.808Z,35.61
2023-05-11T05:55:11.814Z,35.52
2023-05-11T05:56:11.810Z,35.61
2023-05-11T05:57:13.171Z,35.13
2023-05-11T05:58:11.813Z,35.32
2023-05-11T05:59:11.834Z,35.71
2023-05-11T06:00:11.820Z,35.71
2023-05-11T06:01:11.823Z,35.61
2023-05-11T06:02:11.865Z,35.42
2023-05-11T06:03:11.858Z,34.94
2023-05-11T06:04:11.928Z,35.13
2023-05-11T06:05:11.832Z,35.13
2023-05-11T06:06:11.840Z,35.13
2023-05-11T06:07:11.831Z,35.03
2023-05-11T06:08:11.858Z,35.13
2023-05-11T06:09:11.840Z,34.84
2023-05-11T06:10:11.855Z,34.74
2023-05-11T06:11:11.848Z,34.84
2023-05-11T06:12:11.862Z,34.84
2023-05-11T06:13:11.851Z,34.55
2023-05-11T06:14:11.862Z,34.64
2023-05-11T06:15:11.899Z,34.64
2023-05-11T06:16:11.894Z,34.64
2023-05-11T06:17:11.858Z,34.74
2023-05-11T06:18:11.884Z,34.74
2023-05-11T06:19:12.021Z,34.94
2023-05-11T06:20:12.013Z,34.94
2023-05-11T06:21:11.868Z,34.94
2023-05-11T06:22:11.877Z,34.84
2023-05-11T06:23:11.878Z,34.94
2023-05-11T06:24:11.907Z,34.64
2023-05-11T06:25:11.869Z,34.55
2023-05-11T06:26:11.876Z,34.45
2023-05-11T06:27:11.882Z,34.55
2023-05-11T06:28:11.881Z,34.64
2023-05-11T06:29:11.885Z,34.74
2023-05-11T06:30:11.888Z,33.97
2023-05-11T06:31:11.941Z,34.36
2023-05-11T06:32:11.896Z,34.74
2023-05-11T06:33:11.900Z,34.26
2023-05-11T06:34:11.901Z,34.16
2023-05-11T06:35:11.898Z,34.26
2023-05-11T06:36:11.903Z,34.26
2023-05-11T06:37:11.895Z,34.06
2023-05-11T06:38:11.906Z,34.06
2023-05-11T06:39:11.908Z,34.06
2023-05-11T06:40:12.121Z,34.06
2023-05-11T06:41:11.920Z,34.06
2023-05-11T06:42:11.911Z,33.97
2023-05-11T06:43:11.930Z,34.26
2023-05-11T06:44:11.914Z,33.97
2023-05-11T06:45:11.979Z,33.87
2023-05-11T06:46:11.986Z,33.87
2023-05-11T06:47:11.924Z,33.89
2023-05-11T06:48:11.994Z,33.58
2023-05-11T06:49:11.938Z,34.38
2023-05-11T06:50:11.924Z,34.28
2023-05-11T06:51:11.933Z,33.97
2023-05-11T06:52:11.939Z,34.26
2023-05-11T06:53:11.937Z,33.80
2023-05-11T06:54:11.948Z,33.98
2023-05-11T06:55:12.094Z,33.80
2023-05-11T06:56:11.969Z,33.50
2023-05-11T06:57:14.313Z,33.89
2023-05-11T06:58:11.948Z,33.68
2023-05-11T06:59:11.963Z,33.68
2023-05-11T07:00:11.951Z,33.89
2023-05-11T07:01:12.019Z,33.89
2023-05-11T07:02:11.956Z,33.80
2023-05-11T07:03:11.988Z,33.80
2023-05-11T07:04:12.041Z,33.70
2023-05-11T07:05:11.964Z,33.80
2023-05-11T07:06:11.965Z,33.80
2023-05-11T07:07:11.967Z,33.40
2023-05-11T07:08:11.971Z,33.60
2023-05-11T07:09:11.970Z,33.50
2023-05-11T07:10:11.967Z,33.60
2023-05-11T07:11:11.977Z,33.70
2023-05-11T07:12:12.108Z,33.12
2023-05-11T07:13:11.978Z,33.60
2023-05-11T07:14:11.978Z,33.22
2023-05-11T07:15:11.982Z,33.22
2023-05-11T07:16:11.982Z,33.40
2023-05-11T07:17:12.044Z,33.22
2023-05-11T07:18:12.154Z,33.02
2023-05-11T07:19:12.054Z,33.22
2023-05-11T07:20:12.049Z,33.02
2023-05-11T07:21:12.001Z,33.22
2023-05-11T07:22:14.732Z,33.02
2023-05-11T07:23:12.000Z,33.31
2023-05-11T07:24:12.004Z,33.22
2023-05-11T07:25:12.000Z,32.82
2023-05-11T07:26:12.013Z,32.82
2023-05-11T07:27:12.017Z,33.10
2023-05-11T07:28:12.038Z,33.00
2023-05-11T07:29:12.013Z,32.81
2023-05-11T07:30:12.023Z,32.92
2023-05-11T07:31:12.030Z,32.81
2023-05-11T07:32:12.021Z,32.81
2023-05-11T07:33:12.060Z,32.91
2023-05-11T07:34:12.021Z,32.54
2023-05-11T07:35:12.027Z,32.71
2023-05-11T07:36:12.024Z,32.82
2023-05-11T07:37:12.035Z,32.73
2023-05-11T07:38:12.027Z,32.54
2023-05-11T07:39:12.036Z,32.64
2023-05-11T07:40:12.043Z,32.73
2023-05-11T07:41:12.823Z,32.54
2023-05-11T07:42:12.047Z,32.64
2023-05-11T07:43:12.061Z,32.62
2023-05-11T07:44:12.070Z,32.64
2023-05-11T07:45:12.049Z,32.06
2023-05-11T07:46:12.083Z,31.96
2023-05-11T07:47:12.050Z,32.44
2023-05-11T07:48:12.135Z,31.96
2023-05-11T07:49:17.297Z,32.23
2023-05-11T07:50:12.073Z,32.04
2023-05-11T07:51:12.061Z,31.96
2023-05-11T07:52:12.067Z,32.06
2023-05-11T07:53:12.076Z,31.94
2023-05-11T07:54:12.070Z,31.75
2023-05-11T07:55:12.073Z,31.85
2023-05-11T07:56:12.082Z,31.76
2023-05-11T07:57:12.076Z,31.65
2023-05-11T07:58:12.072Z,31.65
2023-05-11T07:59:12.081Z,31.67
2023-05-11T08:00:12.281Z,31.56
2023-05-11T08:01:12.088Z,31.65
2023-05-11T08:02:13.304Z,31.65
2023-05-11T08:03:12.148Z,31.67
2023-05-11T08:04:12.096Z,31.65
2023-05-11T08:05:12.095Z,31.46
2023-05-11T08:06:12.222Z,31.48
2023-05-11T08:07:12.097Z,31.38
2023-05-11T08:08:12.104Z,31.38
2023-05-11T08:09:12.099Z,31.37
2023-05-11T08:10:12.098Z,31.38
2023-05-11T08:11:12.135Z,31.37
2023-05-11T08:12:12.110Z,31.46
2023-05-11T08:13:12.113Z,31.37
2023-05-11T08:14:12.115Z,31.38
2023-05-11T08:15:12.112Z,31.38
2023-05-11T08:16:12.184Z,31.18
2023-05-11T08:17:12.128Z,31.38
2023-05-11T08:18:12.165Z,31.67
2023-05-11T08:19:12.126Z,31.46
2023-05-11T08:20:12.132Z,31.18
2023-05-11T08:21:12.132Z,31.48
2023-05-11T08:22:12.132Z,31.46
2023-05-11T08:23:12.139Z,31.09
2023-05-11T08:24:12.143Z,31.46
2023-05-11T08:25:12.162Z,30.90
2023-05-11T08:26:12.153Z,30.90
2023-05-11T08:27:12.149Z,30.90
2023-05-11T08:28:12.141Z,30.90
2023-05-11T08:29:12.148Z,30.99
2023-05-11T08:30:12.253Z,30.61
2023-05-11T08:31:12.237Z,30.61
2023-05-11T08:32:12.245Z,30.41
2023-05-11T08:33:33.815Z,30.51
2023-05-11T08:34:19.230Z,30.61
2023-05-11T08:35:12.298Z,30.32
2023-05-11T08:36:12.166Z,30.70
2023-05-11T08:37:12.173Z,30.80
2023-05-11T08:38:12.172Z,30.51
2023-05-11T08:39:12.166Z,30.41
2023-05-11T08:40:14.586Z,30.61
2023-05-11T08:41:12.205Z,30.41
2023-05-11T08:42:12.181Z,30.70
2023-05-11T08:43:12.183Z,30.41
2023-05-11T08:44:12.191Z,30.12
2023-05-11T08:45:12.197Z,30.22
2023-05-11T08:46:12.264Z,30.32
2023-05-11T08:47:22.785Z,30.12
2023-05-11T08:48:12.216Z,30.22
2023-05-11T08:49:12.196Z,30.22
2023-05-11T08:50:12.204Z,30.22
2023-05-11T08:51:12.202Z,30.22
2023-05-11T08:52:12.197Z,30.41
2023-05-11T08:53:12.208Z,30.32
2023-05-11T08:54:12.213Z,30.32
2023-05-11T08:55:12.225Z,30.22
2023-05-11T08:56:12.214Z,30.32
2023-05-11T08:57:12.214Z,30.32
2023-05-11T08:58:12.214Z,29.93
2023-05-11T08:59:12.226Z,30.22
2023-05-11T09:00:12.237Z,29.93
2023-05-11T09:01:12.286Z,30.41
2023-05-11T09:02:12.225Z,30.51
2023-05-11T09:03:12.256Z,29.93
2023-05-11T09:04:12.745Z,29.83
2023-05-11T09:05:12.240Z,29.55
2023-05-11T09:06:12.235Z,29.55
2023-05-11T09:07:12.238Z,29.74
2023-05-11T09:08:12.241Z,29.64
2023-05-11T09:09:12.245Z,29.55
2023-05-11T09:10:13.773Z,29.74
2023-05-11T09:11:12.257Z,29.74
2023-05-11T09:12:12.251Z,29.93
2023-05-11T09:13:12.262Z,29.35
2023-05-11T09:14:12.261Z,29.35
2023-05-11T09:15:12.256Z,29.55
2023-05-11T09:16:27.882Z,29.45
2023-05-11T09:17:12.300Z,29.35
2023-05-11T09:18:12.324Z,29.45
2023-05-11T09:19:12.268Z,29.35
2023-05-11T09:20:12.353Z,29.35
2023-05-11T09:21:12.288Z,29.74
2023-05-11T09:22:12.273Z,29.45
2023-05-11T09:23:12.278Z,29.56
2023-05-11T09:24:12.288Z,29.46
2023-05-11T09:25:12.289Z,29.35
2023-05-11T09:26:12.283Z,29.45
2023-05-11T09:27:12.291Z,29.45
2023-05-11T09:28:15.769Z,29.64
2023-05-11T09:29:12.294Z,29.64
2023-05-11T09:30:12.327Z,29.35
2023-05-11T09:31:12.321Z,29.45
2023-05-11T09:32:12.354Z,29.85
2023-05-11T09:33:12.308Z,29.45
2023-05-11T09:34:12.316Z,29.45
2023-05-11T09:35:12.318Z,29.35
2023-05-11T09:36:12.333Z,29.64
2023-05-11T09:37:12.315Z,29.35
2023-05-11T09:38:12.337Z,29.66
2023-05-11T09:39:15.891Z,29.45
2023-05-11T09:41:12.329Z,29.46
2023-05-11T09:42:12.328Z,29.56
2023-05-11T09:43:12.330Z,29.56
2023-05-11T09:44:12.351Z,29.46
2023-05-11T09:45:12.339Z,29.27
2023-05-11T09:46:12.363Z,29.36
2023-05-11T09:47:12.341Z,29.46
2023-05-11T09:48:12.401Z,29.46
2023-05-11T09:49:12.351Z,29.27
2023-05-11T09:50:12.350Z,29.46
2023-05-11T09:51:12.358Z,29.46
2023-05-11T09:52:12.616Z,29.46
2023-05-11T09:53:12.360Z,29.36
2023-05-11T09:54:12.387Z,29.27
2023-05-11T09:55:12.364Z,29.27
2023-05-11T09:56:12.369Z,29.36
2023-05-11T09:57:12.371Z,29.75
2023-05-11T09:58:12.375Z,29.46
2023-05-11T09:59:12.380Z,29.27
2023-05-11T10:00:12.380Z,29.56
2023-05-11T10:01:12.433Z,29.36
2023-05-11T10:02:12.387Z,29.75
2023-05-11T10:03:12.483Z,29.66
2023-05-11T10:04:22.846Z,29.46
2023-05-11T10:05:12.396Z,29.66
2023-05-11T10:06:12.396Z,29.46
2023-05-11T10:07:12.416Z,29.46
2023-05-11T10:08:12.439Z,29.36
2023-05-11T10:09:12.418Z,29.46
2023-05-11T10:10:12.407Z,29.36
2023-05-11T10:11:12.411Z,29.46
2023-05-11T10:12:12.412Z,29.36
2023-05-11T10:13:12.425Z,29.56
2023-05-11T10:14:12.425Z,29.46
2023-05-11T10:15:12.413Z,29.56
2023-05-11T10:16:12.456Z,29.36
2023-05-11T10:17:12.430Z,29.36
2023-05-11T10:18:12.513Z,29.36
2023-05-11T10:19:12.520Z,29.56
2023-05-11T10:20:12.444Z,29.56
2023-05-11T10:21:12.443Z,29.56
2023-05-11T10:22:12.488Z,29.46
2023-05-11T10:23:12.453Z,29.46
2023-05-11T10:24:12.474Z,29.56
2023-05-11T10:25:12.487Z,29.66
2023-05-11T10:26:12.463Z,29.46
2023-05-11T10:27:12.461Z,29.36
2023-05-11T10:28:12.457Z,29.56
2023-05-11T10:29:12.461Z,29.46
2023-05-11T10:30:12.470Z,29.46
2023-05-11T10:31:12.472Z,29.46
2023-05-11T10:32:12.594Z,29.46
2023-05-11T10:33:12.528Z,29.46
2023-05-11T10:34:12.491Z,29.27
2023-05-11T10:35:12.482Z,29.56
2023-05-11T10:36:12.564Z,29.46
2023-05-11T10:37:12.489Z,29.56
2023-05-11T10:38:12.489Z,29.47
2023-05-11T10:39:12.486Z,29.27
2023-05-11T10:40:12.514Z,29.38
2023-05-11T10:41:12.496Z,29.47
2023-05-11T10:42:12.553Z,29.57
2023-05-11T10:43:12.508Z,29.46
2023-05-11T10:44:12.501Z,29.47
2023-05-11T10:45:12.511Z,29.57
2023-05-11T10:46:12.565Z,29.47
2023-05-11T10:47:12.518Z,29.47
2023-05-11T10:48:12.517Z,29.38
2023-05-11T10:49:12.518Z,29.67
2023-05-11T10:50:12.537Z,29.28
2023-05-11T10:51:12.522Z,29.47
2023-05-11T10:52:12.588Z,29.28
2023-05-11T10:53:12.535Z,29.47
2023-05-11T10:54:12.531Z,29.47
2023-05-11T10:55:12.534Z,29.47
2023-05-11T10:56:12.584Z,29.38
2023-05-11T10:57:12.563Z,29.47
2023-05-11T10:58:12.550Z,29.47
2023-05-11T10:59:12.550Z,29.47
2023-05-11T11:00:12.656Z,29.47
2023-05-11T11:01:12.615Z,29.38
2023-05-11T11:02:12.559Z,29.47
2023-05-11T11:03:12.576Z,29.47
2023-05-11T11:04:12.568Z,29.47
2023-05-11T11:05:12.602Z,29.47
2023-05-11T11:06:12.710Z,29.57
2023-05-11T11:07:12.576Z,29.38
2023-05-11T11:08:12.578Z,29.38
2023-05-11T11:09:12.611Z,29.47
2023-05-11T11:10:12.587Z,29.38
2023-05-11T11:11:12.591Z,29.38
2023-05-11T11:12:12.627Z,29.28
2023-05-11T11:13:12.606Z,29.38
2023-05-11T11:14:12.602Z,29.47
2023-05-11T11:15:12.644Z,29.38
2023-05-11T11:16:14.744Z,29.57
2023-05-11T11:17:12.661Z,29.57
2023-05-11T11:18:12.631Z,29.38
2023-05-11T11:19:12.656Z,29.19
2023-05-11T11:20:12.651Z,29.47
2023-05-11T11:21:12.627Z,29.47
2023-05-11T11:22:12.679Z,29.57
2023-05-11T11:23:12.634Z,29.38
2023-05-11T11:24:12.637Z,29.38
2023-05-11T11:25:12.630Z,29.38
2023-05-11T11:26:12.645Z,29.28
2023-05-11T11:27:12.642Z,29.38
2023-05-11T11:28:12.674Z,29.57
2023-05-11T11:29:12.656Z,29.57
2023-05-11T11:30:12.673Z,29.28
2023-05-11T11:31:12.714Z,29.47
2023-05-11T11:32:12.658Z,29.28
2023-05-11T11:33:12.737Z,29.57
2023-05-11T11:34:12.719Z,29.57
2023-05-11T11:35:12.666Z,29.67
2023-05-11T11:36:12.676Z,29.38
2023-05-11T11:37:12.736Z,29.57
2023-05-11T11:38:12.677Z,29.28
2023-05-11T11:39:12.685Z,29.47
2023-05-11T11:40:15.458Z,29.28
2023-05-11T11:41:12.690Z,29.28
2023-05-11T11:42:12.756Z,29.28
2023-05-11T11:43:12.695Z,29.77
2023-05-11T11:44:12.745Z,29.77
2023-05-11T11:45:12.698Z,29.96
2023-05-11T11:46:12.722Z,29.86
2023-05-11T11:47:12.782Z,29.67
2023-05-11T11:48:12.841Z,29.77
2023-05-11T11:49:12.718Z,29.67
2023-05-11T11:50:12.719Z,29.67
2023-05-11T11:51:12.720Z,29.57
2023-05-11T11:52:12.738Z,30.54
2023-05-11T11:53:12.739Z,30.44
2023-05-11T11:54:12.792Z,30.44
2023-05-11T11:55:12.740Z,30.35
2023-05-11T11:56:12.736Z,30.25
2023-05-11T11:57:12.794Z,30.35
2023-05-11T11:58:12.740Z,30.35
2023-05-11T11:59:12.743Z,30.44
2023-05-11T12:00:12.782Z,30.25
2023-05-11T12:01:12.753Z,30.05
2023-05-11T12:02:12.760Z,30.54
2023-05-11T12:03:12.816Z,30.63
2023-05-11T12:04:12.958Z,30.25
2023-05-11T12:05:12.815Z,30.44
2023-05-11T12:06:12.767Z,30.73
2023-05-11T12:07:12.772Z,30.54
2023-05-11T12:08:12.775Z,30.15
2023-05-11T12:09:12.780Z,30.44
2023-05-11T12:10:12.826Z,30.54
2023-05-11T12:11:12.800Z,30.83
2023-05-11T12:12:12.785Z,30.93
2023-05-11T12:13:12.813Z,30.93
2023-05-11T12:14:12.790Z,30.83
2023-05-11T12:15:12.790Z,30.93
2023-05-11T12:16:13.001Z,30.54
2023-05-11T12:17:12.802Z,30.83
2023-05-11T12:18:12.808Z,30.83
2023-05-11T12:19:12.897Z,30.83
2023-05-11T12:20:12.880Z,30.83
2023-05-11T12:21:12.817Z,30.83
2023-05-11T12:22:12.990Z,30.93
2023-05-11T12:23:12.820Z,31.02
2023-05-11T12:24:12.828Z,30.93
2023-05-11T12:25:12.832Z,30.83
2023-05-11T12:26:12.836Z,30.83
2023-05-11T12:27:12.832Z,30.93
2023-05-11T12:28:12.826Z,30.83
2023-05-11T12:29:12.870Z,30.93
2023-05-11T12:30:12.857Z,31.02
2023-05-11T12:31:12.849Z,30.83
2023-05-11T12:32:12.987Z,31.22
2023-05-11T12:33:12.884Z,31.22
2023-05-11T12:34:12.866Z,31.51
2023-05-11T12:35:12.864Z,31.60
2023-05-11T12:36:12.865Z,31.12
2023-05-11T12:37:12.868Z,31.60
2023-05-11T12:38:12.875Z,31.41
2023-05-11T12:39:12.878Z,31.51
2023-05-11T12:40:12.916Z,31.41
2023-05-11T12:41:12.879Z,31.51
2023-05-11T12:42:12.904Z,31.22
2023-05-11T12:43:12.894Z,31.51
2023-05-11T12:44:12.912Z,31.51
2023-05-11T12:45:12.894Z,31.51
2023-05-11T12:46:12.956Z,31.41
2023-05-11T12:47:12.907Z,31.41
2023-05-11T12:48:12.991Z,31.51
2023-05-11T12:49:12.906Z,31.49
2023-05-11T12:50:12.917Z,31.41
2023-05-11T12:51:12.913Z,31.22
2023-05-11T12:52:12.922Z,31.12
2023-05-11T12:53:12.921Z,31.51